Time;durP1;ratioP1;P1;durP2;ratioP2;P2;SDS_P1;SDS_P2;PMS_P1;PMS_P2;Temp;Humidity;BMP_temperature;BMP_pressure;BME280_temperature;BME280_humidity;BME280_pressure;Samples;Min_cycle;Max_cycle;Signal;HPM_P1;HPM_P2
2022/06/25 00:01:44;;;;;;;;;;;19.40;99.90;;;;;;5019908;28;19905;-75
2022/06/25 00:05:27;;;;;;;;;;;19.40;99.90;;;;;;5016820;28;19913;-75
2022/06/25 00:06:55;;;;;;;;;;;19.30;99.90;;;;;;5018872;28;19929;-75
2022/06/25 00:09:21;;;;;;;;;;;19.30;99.90;;;;;;5019730;28;19972;-75
2022/06/25 00:14:31;;;;;;;;;;;19.20;99.90;;;;;;5027292;28;20310;-75
2022/06/25 00:16:56;;;;;;;;;;;19.10;99.90;;;;;;5018436;28;20000;-75
2022/06/25 00:19:23;;;;;;;;;;;19.10;99.90;;;;;;5017914;28;19984;-75
2022/06/25 00:21:49;;;;;;;;;;;19.10;99.90;;;;;;5017819;28;19956;-75
2022/06/25 00:24:16;;;;;;;;;;;19.10;99.90;;;;;;5018406;28;19905;-76
2022/06/25 00:26:42;;;;;;;;;;;19.10;99.90;;;;;;5017763;28;19972;-75
2022/06/25 00:29:09;;;;;;;;;;;19.10;99.90;;;;;;5018139;28;19945;-76
2022/06/25 00:31:34;;;;;;;;;;;19.10;99.90;;;;;;5017070;28;19915;-76
2022/06/25 00:34:00;;;;;;;;;;;19.10;99.90;;;;;;5017696;28;19973;-76
2022/06/25 00:36:26;;;;;;;;;;;19.10;99.90;;;;;;5016096;28;19906;-77
2022/06/25 00:38:51;;;;;;;;;;;19.10;99.90;;;;;;5016517;28;19960;-76
2022/06/25 00:41:17;;;;;;;;;;;19.10;99.90;;;;;;5021152;28;19929;-76
2022/06/25 00:43:42;;;;;;;;;;;19.10;99.90;;;;;;5020604;28;20350;-76
2022/06/25 00:46:08;;;;;;;;;;;19.10;99.90;;;;;;5018073;28;19909;-76
2022/06/25 00:48:33;;;;;;;;;;;19.00;99.90;;;;;;5016970;28;19956;-76
2022/06/25 00:51:01;;;;;;;;;;;19.10;99.90;;;;;;5017244;28;19964;-74
2022/06/25 00:53:30;;;;;;;;;;;19.10;99.90;;;;;;5018021;28;19917;-77
2022/06/25 00:55:57;;;;;;;;;;;19.10;99.90;;;;;;5017930;28;19996;-77
2022/06/25 00:58:23;;;;;;;;;;;19.00;99.90;;;;;;5018863;28;19909;-74
2022/06/25 01:00:49;;;;;;;;;;;19.10;99.90;;;;;;5018781;28;19905;-74
2022/06/25 01:03:15;;;;;;;;;;;19.00;99.90;;;;;;5019342;28;19936;-75
2022/06/25 01:05:40;;;;;;;;;;;19.10;99.90;;;;;;5019432;28;19929;-76
2022/06/25 01:08:06;;;;;;;;;;;19.10;99.90;;;;;;5019076;28;19936;-75
2022/06/25 01:10:31;;;;;;;;;;;19.00;99.90;;;;;;5017006;28;19905;-75
2022/06/25 01:12:57;;;;;;;;;;;19.00;99.90;;;;;;5019354;28;19940;-75
2022/06/25 01:15:23;;;;;;;;;;;19.00;99.90;;;;;;5017978;28;19905;-76
2022/06/25 01:17:50;;;;;;;;;;;19.10;99.90;;;;;;5016244;28;19905;-76
2022/06/25 01:20:17;;;;;;;;;;;19.10;99.90;;;;;;5017467;28;19912;-74
2022/06/25 01:22:42;;;;;;;;;;;19.10;99.90;;;;;;5017517;28;19913;-74
2022/06/25 01:25:09;;;;;;;;;;;19.10;99.90;;;;;;5018592;28;19906;-75
2022/06/25 01:27:34;;;;;;;;;;;19.00;99.90;;;;;;5020558;28;19939;-75
2022/06/25 01:30:00;;;;;;;;;;;19.10;99.90;;;;;;5021356;28;19912;-76
2022/06/25 01:32:26;;;;;;;;;;;19.10;99.90;;;;;;5021006;28;19906;-76
2022/06/25 01:34:52;;;;;;;;;;;19.00;99.90;;;;;;5020898;28;19905;-76
2022/06/25 01:37:17;;;;;;;;;;;19.00;99.90;;;;;;5020613;28;20236;-76
2022/06/25 01:39:43;;;;;;;;;;;19.00;99.90;;;;;;5018808;28;19932;-76
2022/06/25 01:42:58;;;;;;;;;;;19.10;99.90;;;;;;5020124;28;19913;-76
2022/06/25 01:44:54;;;;;;;;;;;19.00;99.90;;;;;;5020709;28;19999;-76
2022/06/25 01:47:19;;;;;;;;;;;19.00;99.90;;;;;;5023372;28;20406;-76
2022/06/25 01:49:45;;;;;;;;;;;19.00;99.90;;;;;;5023759;28;19939;-76
2022/06/25 01:52:12;;;;;;;;;;;19.00;99.90;;;;;;5057457;22;19921;-76
2022/06/25 01:54:38;;;;;;;;;;;19.00;99.90;;;;;;5041551;28;19913;-76
2022/06/25 01:57:03;;;;;;;;;;;19.00;99.90;;;;;;5032009;28;19906;-77
2022/06/25 01:59:29;;;;;;;;;;;19.00;99.90;;;;;;5018006;28;19910;-77
2022/06/25 02:01:54;;;;;;;;;;;19.00;99.90;;;;;;5031928;28;19912;-76
2022/06/25 02:04:20;;;;;;;;;;;18.90;99.90;;;;;;5041865;28;19905;-76
2022/06/25 02:06:45;;;;;;;;;;;18.90;99.90;;;;;;5037986;28;19913;-77
2022/06/25 02:09:11;;;;;;;;;;;18.90;99.90;;;;;;5038698;28;19904;-78
2022/06/25 02:11:37;;;;;;;;;;;18.90;99.90;;;;;;5036182;28;19905;-77
2022/06/25 02:14:02;;;;;;;;;;;18.80;99.90;;;;;;5037469;28;20000;-78
2022/06/25 02:16:27;;;;;;;;;;;18.80;99.90;;;;;;5037473;28;19905;-78
2022/06/25 02:18:53;;;;;;;;;;;18.80;99.90;;;;;;5037820;28;19911;-78
2022/06/25 02:21:19;;;;;;;;;;;18.80;99.90;;;;;;5037757;28;20261;-77
2022/06/25 02:23:44;;;;;;;;;;;18.70;99.90;;;;;;5038012;28;19909;-78
2022/06/25 02:26:10;;;;;;;;;;;18.70;99.90;;;;;;5037094;28;19905;-77
2022/06/25 02:28:35;;;;;;;;;;;18.70;99.90;;;;;;5036792;28;19905;-77
2022/06/25 02:31:01;;;;;;;;;;;18.70;99.90;;;;;;5037320;28;19912;-77
2022/06/25 02:33:27;;;;;;;;;;;18.70;99.90;;;;;;5044269;28;19905;-76
2022/06/25 02:35:52;;;;;;;;;;;18.70;99.90;;;;;;5057294;28;19912;-77
2022/06/25 02:38:18;;;;;;;;;;;18.60;99.90;;;;;;5058079;28;19909;-77
2022/06/25 02:40:43;;;;;;;;;;;18.60;99.90;;;;;;5057780;28;19928;-77
2022/06/25 02:43:10;;;;;;;;;;;18.60;99.90;;;;;;5056262;28;19909;-77
2022/06/25 02:45:35;;;;;;;;;;;18.60;99.90;;;;;;5056954;28;19905;-77
2022/06/25 02:48:01;;;;;;;;;;;18.60;99.90;;;;;;5057792;28;19915;-78
2022/06/25 02:50:27;;;;;;;;;;;18.70;99.90;;;;;;5052224;28;19912;-77
2022/06/25 02:52:52;;;;;;;;;;;18.60;99.90;;;;;;5037864;28;20344;-77
2022/06/25 02:55:18;;;;;;;;;;;18.70;99.90;;;;;;5037150;28;19905;-77
2022/06/25 03:00:27;;;;;;;;;;;18.70;99.90;;;;;;5037816;28;20281;-77
2022/06/25 03:02:53;;;;;;;;;;;18.70;99.90;;;;;;5038991;28;19901;-78
2022/06/25 03:05:18;;;;;;;;;;;18.70;99.90;;;;;;5059106;28;19959;-78
2022/06/25 03:07:44;;;;;;;;;;;18.70;99.90;;;;;;5041379;28;20320;-78
2022/06/25 03:10:09;;;;;;;;;;;18.70;99.90;;;;;;5038279;28;19905;-78
2022/06/25 03:12:35;;;;;;;;;;;18.70;99.90;;;;;;5038467;28;20023;-78
2022/06/25 03:15:01;;;;;;;;;;;18.70;99.90;;;;;;5039331;28;19984;-78
2022/06/25 03:17:27;;;;;;;;;;;18.70;99.90;;;;;;5037706;28;20342;-78
2022/06/25 03:19:53;;;;;;;;;;;18.70;99.90;;;;;;5037528;28;19905;-78
2022/06/25 03:22:18;;;;;;;;;;;18.70;99.90;;;;;;5038803;28;20015;-78
2022/06/25 03:24:43;;;;;;;;;;;18.70;99.90;;;;;;5039011;28;19944;-79
2022/06/25 03:27:09;;;;;;;;;;;18.70;99.90;;;;;;5038461;28;20273;-78
2022/06/25 03:29:34;;;;;;;;;;;18.70;99.90;;;;;;5036715;28;19908;-78
2022/06/25 03:32:00;;;;;;;;;;;18.70;99.90;;;;;;5037217;28;20260;-77
2022/06/25 03:34:25;;;;;;;;;;;18.60;99.90;;;;;;5037299;28;19905;-78
2022/06/25 03:36:51;;;;;;;;;;;18.60;99.90;;;;;;5037261;28;19944;-77
2022/06/25 03:39:16;;;;;;;;;;;18.60;99.90;;;;;;5038822;28;20358;-78
2022/06/25 03:41:42;;;;;;;;;;;18.60;99.90;;;;;;5037469;28;19905;-78
2022/06/25 03:44:08;;;;;;;;;;;18.60;99.90;;;;;;5036843;28;19905;-78
2022/06/25 03:46:35;;;;;;;;;;;18.60;99.90;;;;;;5037621;28;19947;-77
2022/06/25 03:49:01;;;;;;;;;;;18.60;99.90;;;;;;5036816;28;19909;-77
2022/06/25 03:51:27;;;;;;;;;;;18.50;99.90;;;;;;5037389;28;19913;-77
2022/06/25 03:53:53;;;;;;;;;;;18.60;99.90;;;;;;5037090;28;19937;-77
2022/06/25 03:56:18;;;;;;;;;;;18.50;99.90;;;;;;5037714;28;20019;-77
2022/06/25 03:58:44;;;;;;;;;;;18.50;99.90;;;;;;5036510;28;19910;-77
2022/06/25 04:01:09;;;;;;;;;;;18.50;99.90;;;;;;5036611;28;19905;-77
2022/06/25 04:03:35;;;;;;;;;;;18.50;99.90;;;;;;5036555;28;19905;-77
2022/06/25 04:06:00;;;;;;;;;;;18.50;99.90;;;;;;5034939;28;19905;-77
2022/06/25 04:08:26;;;;;;;;;;;18.50;99.90;;;;;;5035280;28;19959;-78
2022/06/25 04:10:51;;;;;;;;;;;18.60;99.90;;;;;;5035126;28;19905;-77
2022/06/25 04:13:17;;;;;;;;;;;18.60;99.90;;;;;;5034845;28;19905;-77
2022/06/25 04:15:43;;;;;;;;;;;18.60;99.90;;;;;;5035162;28;19927;-77
2022/06/25 04:18:08;;;;;;;;;;;18.60;99.90;;;;;;5035432;28;19916;-78
2022/06/25 04:20:34;;;;;;;;;;;18.60;99.90;;;;;;5035329;28;20000;-78
2022/06/25 04:22:59;;;;;;;;;;;18.70;99.90;;;;;;5035995;28;19905;-78
2022/06/25 04:25:25;;;;;;;;;;;18.70;99.90;;;;;;5034930;28;20095;-77
2022/06/25 04:30:34;;;;;;;;;;;18.70;99.90;;;;;;5035927;28;19959;-77
2022/06/25 04:33:00;;;;;;;;;;;18.70;99.90;;;;;;5035805;28;19905;-77
2022/06/25 04:35:26;;;;;;;;;;;18.70;99.90;;;;;;5035116;28;19996;-77
2022/06/25 04:37:51;;;;;;;;;;;18.70;99.90;;;;;;5034200;28;20040;-77
2022/06/25 04:40:17;;;;;;;;;;;18.80;99.90;;;;;;5034372;28;19959;-78
2022/06/25 04:42:43;;;;;;;;;;;18.80;99.90;;;;;;5034138;28;19905;-77
2022/06/25 04:45:08;;;;;;;;;;;18.80;99.90;;;;;;5034415;28;20347;-77
2022/06/25 04:47:34;;;;;;;;;;;18.90;99.90;;;;;;5034300;28;20258;-77
2022/06/25 04:49:59;;;;;;;;;;;19.00;99.90;;;;;;5034248;28;19905;-77
2022/06/25 04:52:25;;;;;;;;;;;19.00;99.90;;;;;;5034707;28;19917;-77
2022/06/25 04:54:50;;;;;;;;;;;19.00;99.90;;;;;;5034855;28;19963;-77
2022/06/25 04:57:16;;;;;;;;;;;19.10;99.90;;;;;;5035333;28;19905;-77
2022/06/25 04:59:41;;;;;;;;;;;19.20;99.90;;;;;;5034436;28;20386;-78
2022/06/25 05:02:07;;;;;;;;;;;19.30;99.90;;;;;;5035573;28;19912;-78
2022/06/25 05:04:33;;;;;;;;;;;19.40;99.90;;;;;;5032907;28;19927;-78
2022/06/25 05:06:58;;;;;;;;;;;19.50;99.90;;;;;;5033856;28;19920;-77
2022/06/25 05:09:25;;;;;;;;;;;19.60;99.90;;;;;;5036401;28;19905;-77
2022/06/25 05:11:51;;;;;;;;;;;19.70;99.90;;;;;;5034060;28;19937;-77
2022/06/25 05:14:16;;;;;;;;;;;19.70;99.90;;;;;;5034378;28;20267;-77
2022/06/25 05:16:42;;;;;;;;;;;19.80;99.90;;;;;;5035400;28;19905;-77
2022/06/25 05:19:07;;;;;;;;;;;19.90;99.90;;;;;;5034700;28;19905;-77
2022/06/25 05:21:34;;;;;;;;;;;20.00;99.90;;;;;;5034203;28;19955;-77
2022/06/25 05:23:59;;;;;;;;;;;20.10;99.90;;;;;;5034566;28;20378;-77
2022/06/25 05:26:25;;;;;;;;;;;20.20;99.90;;;;;;5035235;28;19917;-77
2022/06/25 05:28:51;;;;;;;;;;;20.30;99.90;;;;;;5034953;28;19927;-76
2022/06/25 05:31:16;;;;;;;;;;;20.40;99.90;;;;;;5034084;28;19909;-76
2022/06/25 05:33:42;;;;;;;;;;;20.40;99.90;;;;;;5034116;28;19952;-77
2022/06/25 05:36:07;;;;;;;;;;;20.40;99.90;;;;;;5035334;28;19905;-78
2022/06/25 05:38:33;;;;;;;;;;;20.40;99.90;;;;;;5035811;28;19912;-77
2022/06/25 05:40:58;;;;;;;;;;;20.40;99.90;;;;;;5036350;28;19916;-77
2022/06/25 05:43:24;;;;;;;;;;;20.50;99.90;;;;;;5035013;28;19905;-77
2022/06/25 05:45:49;;;;;;;;;;;20.50;99.90;;;;;;5035867;28;19905;-77
2022/06/25 05:48:15;;;;;;;;;;;20.50;99.90;;;;;;5035334;28;20019;-77
2022/06/25 05:50:40;;;;;;;;;;;20.50;99.90;;;;;;5035720;28;19909;-78
2022/06/25 05:53:06;;;;;;;;;;;20.60;99.90;;;;;;5035654;28;19912;-78
2022/06/25 05:55:31;;;;;;;;;;;20.70;99.90;;;;;;5034421;28;19905;-78
2022/06/25 05:57:58;;;;;;;;;;;20.70;99.90;;;;;;5036424;28;19947;-78
2022/06/25 06:00:26;;;;;;;;;;;20.90;99.90;;;;;;5035710;28;19995;-77
2022/06/25 06:02:51;;;;;;;;;;;21.00;99.90;;;;;;5035175;28;20014;-77
2022/06/25 06:05:17;;;;;;;;;;;21.10;99.90;;;;;;5036199;28;20366;-77
2022/06/25 06:07:43;;;;;;;;;;;21.30;99.90;;;;;;5037336;28;19909;-77
2022/06/25 06:10:08;;;;;;;;;;;21.40;99.90;;;;;;5038367;28;19909;-78
2022/06/25 06:12:34;;;;;;;;;;;21.50;99.90;;;;;;5043469;28;19931;-77
2022/06/25 06:15:00;;;;;;;;;;;21.60;99.90;;;;;;5056358;28;19977;-78
2022/06/25 06:17:25;;;;;;;;;;;21.70;99.90;;;;;;5060239;28;19913;-77
2022/06/25 06:19:51;;;;;;;;;;;21.80;99.90;;;;;;5058245;28;19916;-77
2022/06/25 06:22:16;;;;;;;;;;;21.90;99.90;;;;;;5059875;28;19931;-77
2022/06/25 06:24:42;;;;;;;;;;;22.00;99.90;;;;;;5040609;28;19961;-77
2022/06/25 06:27:07;;;;;;;;;;;22.00;99.90;;;;;;5039656;28;20381;-77
2022/06/25 06:29:33;;;;;;;;;;;22.00;99.90;;;;;;5040060;28;19940;-77
2022/06/25 06:31:58;;;;;;;;;;;22.10;99.90;;;;;;5041143;28;19916;-77
2022/06/25 06:34:24;;;;;;;;;;;22.20;99.90;;;;;;5041661;28;19905;-78
2022/06/25 06:36:50;;;;;;;;;;;22.20;99.90;;;;;;5051702;28;19945;-78
2022/06/25 06:39:15;;;;;;;;;;;22.20;99.90;;;;;;5039371;28;20429;-78
2022/06/25 06:41:40;;;;;;;;;;;22.30;99.90;;;;;;5037028;28;19905;-77
2022/06/25 06:44:06;;;;;;;;;;;22.40;99.90;;;;;;5036880;28;19905;-77
2022/06/25 06:46:32;;;;;;;;;;;22.40;99.90;;;;;;5038557;28;19909;-77
2022/06/25 06:48:57;;;;;;;;;;;22.50;99.90;;;;;;5037828;28;19912;-78
2022/06/25 06:51:23;;;;;;;;;;;22.60;99.90;;;;;;5019003;28;19996;-77
2022/06/25 06:53:48;;;;;;;;;;;22.70;99.90;;;;;;5017336;28;20012;-77
2022/06/25 06:56:14;;;;;;;;;;;22.70;99.90;;;;;;5018556;28;19906;-77
2022/06/25 06:58:39;;;;;;;;;;;22.60;99.90;;;;;;5018195;28;19905;-77
2022/06/25 07:01:05;;;;;;;;;;;22.70;99.90;;;;;;5018463;28;19955;-77
2022/06/25 07:03:31;;;;;;;;;;;22.80;99.90;;;;;;5016776;28;19948;-78
2022/06/25 07:05:56;;;;;;;;;;;22.90;99.90;;;;;;5018513;28;19905;-77
2022/06/25 07:08:22;;;;;;;;;;;23.10;99.90;;;;;;5023429;28;19909;-76
2022/06/25 07:10:47;;;;;;;;;;;23.10;99.90;;;;;;5023666;28;19905;-76
2022/06/25 07:13:13;;;;;;;;;;;23.30;99.90;;;;;;5018567;28;19909;-76
2022/06/25 07:15:39;;;;;;;;;;;23.30;99.90;;;;;;5017614;28;19909;-76
2022/06/25 07:18:05;;;;;;;;;;;23.40;99.90;;;;;;5017216;28;20412;-77
2022/06/25 07:20:30;;;;;;;;;;;23.40;99.90;;;;;;5017042;28;19972;-76
2022/06/25 07:22:56;;;;;;;;;;;23.40;99.90;;;;;;5016375;28;20039;-77
2022/06/25 07:25:21;;;;;;;;;;;23.60;99.90;;;;;;5016759;28;19905;-77
2022/06/25 07:27:48;;;;;;;;;;;23.60;99.90;;;;;;5018106;28;19910;-77
2022/06/25 07:30:14;;;;;;;;;;;23.80;99.90;;;;;;5015935;28;20000;-77
2022/06/25 07:32:39;;;;;;;;;;;23.70;99.90;;;;;;5017386;28;19944;-76
2022/06/25 07:35:05;;;;;;;;;;;23.80;99.90;;;;;;5018180;28;20275;-78
2022/06/25 07:37:31;;;;;;;;;;;23.90;99.90;;;;;;5019763;28;19912;-75
2022/06/25 07:39:56;;;;;;;;;;;23.90;99.90;;;;;;5018310;28;20092;-76
2022/06/25 07:42:22;;;;;;;;;;;24.00;99.90;;;;;;5017781;28;20354;-77
2022/06/25 07:44:47;;;;;;;;;;;24.00;99.90;;;;;;5019809;28;19912;-77
2022/06/25 07:47:13;;;;;;;;;;;24.00;99.90;;;;;;5021259;28;19916;-76
2022/06/25 07:52:22;;;;;;;;;;;24.00;99.90;;;;;;5042041;22;19928;-70
2022/06/25 07:54:48;;;;;;;;;;;24.10;99.90;;;;;;5019385;28;19906;-71
2022/06/25 07:57:13;;;;;;;;;;;24.10;99.90;;;;;;5019852;28;19910;-71
2022/06/25 07:59:39;;;;;;;;;;;24.20;99.90;;;;;;5018624;28;20048;-71
2022/06/25 08:02:04;;;;;;;;;;;24.20;99.90;;;;;;5020422;28;20279;-71
2022/06/25 08:04:30;;;;;;;;;;;24.40;99.90;;;;;;5024425;28;19929;-71
2022/06/25 08:06:57;;;;;;;;;;;24.40;99.90;;;;;;5020677;28;19992;-72
2022/06/25 08:09:22;;;;;;;;;;;24.50;99.90;;;;;;5012662;28;19959;-72
2022/06/25 08:11:48;;;;;;;;;;;24.60;99.90;;;;;;5006319;28;19905;-72
2022/06/25 08:14:14;;;;;;;;;;;24.60;99.90;;;;;;5015831;28;19909;-72
2022/06/25 08:16:39;;;;;;;;;;;24.70;99.90;;;;;;5015524;28;19996;-72
2022/06/25 08:19:05;;;;;;;;;;;24.70;99.90;;;;;;5015364;28;20330;-73
2022/06/25 08:21:31;;;;;;;;;;;24.60;99.90;;;;;;5015796;28;19905;-72
2022/06/25 08:23:56;;;;;;;;;;;24.50;99.90;;;;;;5016563;28;20286;-72
2022/06/25 08:26:22;;;;;;;;;;;24.50;99.90;;;;;;5016011;28;19913;-72
2022/06/25 08:28:47;;;;;;;;;;;24.60;99.90;;;;;;5015496;28;20069;-72
2022/06/25 08:31:13;;;;;;;;;;;24.60;99.90;;;;;;5015237;28;19909;-72
2022/06/25 08:33:38;;;;;;;;;;;24.70;99.90;;;;;;5014674;28;19913;-72
2022/06/25 08:36:04;;;;;;;;;;;24.90;99.90;;;;;;5007783;28;19963;-72
2022/06/25 08:38:30;;;;;;;;;;;25.00;99.90;;;;;;5014813;28;19912;-72
2022/06/25 08:40:56;;;;;;;;;;;25.20;99.90;;;;;;5016941;28;20303;-73
2022/06/25 08:43:22;;;;;;;;;;;25.20;99.90;;;;;;5021019;28;19913;-72
2022/06/25 08:45:47;;;;;;;;;;;25.30;99.90;;;;;;5014310;28;19905;-73
2022/06/25 08:48:19;;;;;;;;;;;25.50;99.90;;;;;;5015600;28;19914;-72
2022/06/25 08:50:45;;;;;;;;;;;25.60;99.90;;;;;;5016192;28;20326;-72
2022/06/25 08:53:11;;;;;;;;;;;25.90;99.90;;;;;;5015239;28;19967;-73
2022/06/25 08:55:38;;;;;;;;;;;26.10;99.90;;;;;;5016401;28;20267;-72
2022/06/25 08:58:05;;;;;;;;;;;26.30;99.90;;;;;;5016559;28;19976;-72
2022/06/25 09:00:32;;;;;;;;;;;26.50;99.90;;;;;;5010526;28;20020;-72
2022/06/25 09:02:58;;;;;;;;;;;26.60;99.90;;;;;;5019060;28;19913;-72
2022/06/25 09:05:24;;;;;;;;;;;26.60;99.90;;;;;;5016984;28;20378;-72
2022/06/25 09:07:53;;;;;;;;;;;26.80;99.90;;;;;;5018746;28;19910;-71
2022/06/25 09:10:20;;;;;;;;;;;26.90;99.90;;;;;;5003564;28;19906;-72
2022/06/25 09:12:50;;;;;;;;;;;27.10;99.90;;;;;;5012683;28;19917;-72
2022/06/25 09:15:22;;;;;;;;;;;27.10;99.90;;;;;;5018490;28;19917;-72
2022/06/25 09:17:51;;;;;;;;;;;27.10;99.90;;;;;;5018062;28;20032;-73
2022/06/25 09:20:18;;;;;;;;;;;27.10;99.90;;;;;;5016249;28;20035;-73
2022/06/25 09:22:57;;;;;;;;;;;27.20;99.90;;;;;;5014648;28;20438;-73
2022/06/25 09:25:23;;;;;;;;;;;27.30;99.90;;;;;;5015497;28;19929;-73
2022/06/25 09:27:49;;;;;;;;;;;27.20;99.90;;;;;;5012950;28;19916;-72
2022/06/25 09:30:16;;;;;;;;;;;27.10;99.90;;;;;;5014712;28;19910;-73
2022/06/25 09:32:45;;;;;;;;;;;27.20;99.90;;;;;;5014589;28;19905;-73
2022/06/25 09:35:12;;;;;;;;;;;27.20;99.90;;;;;;5014807;28;20252;-72
2022/06/25 09:37:38;;;;;;;;;;;27.10;99.90;;;;;;5015000;28;20354;-72
2022/06/25 09:40:04;;;;;;;;;;;27.00;99.90;;;;;;5016293;28;19913;-72
2022/06/25 09:42:32;;;;;;;;;;;26.80;99.90;;;;;;5017907;28;19939;-72
2022/06/25 09:45:08;;;;;;;;;;;26.80;99.90;;;;;;5015836;28;19917;-73
2022/06/25 09:47:34;;;;;;;;;;;26.80;99.90;;;;;;5031031;28;19948;-72
2022/06/25 09:50:04;;;;;;;;;;;26.80;99.90;;;;;;5022535;28;19905;-73
2022/06/25 09:52:30;;;;;;;;;;;26.80;99.90;;;;;;5021030;28;19914;-72
2022/06/25 09:54:55;;;;;;;;;;;26.70;99.90;;;;;;5017529;28;19917;-73
2022/06/25 09:57:21;;;;;;;;;;;26.90;99.90;;;;;;5018249;28;19912;-72
2022/06/25 09:59:49;;;;;;;;;;;27.10;99.90;;;;;;5017286;28;19928;-72
2022/06/25 10:02:14;;;;;;;;;;;27.30;99.90;;;;;;5016822;28;19912;-72
2022/06/25 10:04:43;;;;;;;;;;;27.40;99.90;;;;;;5019422;28;20393;-72
2022/06/25 10:07:09;;;;;;;;;;;27.30;99.90;;;;;;5021829;28;19909;-72
2022/06/25 10:09:36;;;;;;;;;;;27.30;99.90;;;;;;5022040;28;19951;-72
2022/06/25 10:12:01;;;;;;;;;;;27.20;99.90;;;;;;5021583;28;19905;-73
2022/06/25 10:14:27;;;;;;;;;;;27.30;99.90;;;;;;5022673;28;19905;-72
2022/06/25 10:16:53;;;;;;;;;;;27.00;99.90;;;;;;5021897;28;20004;-74
2022/06/25 10:19:20;;;;;;;;;;;26.90;99.90;;;;;;5022213;28;19905;-72
2022/06/25 10:21:46;;;;;;;;;;;26.90;99.90;;;;;;5020540;28;19905;-72
2022/06/25 10:24:12;;;;;;;;;;;26.90;99.90;;;;;;5016062;28;19960;-73
2022/06/25 10:26:38;;;;;;;;;;;27.10;99.90;;;;;;5020004;28;19912;-72
2022/06/25 10:29:22;;;;;;;;;;;27.30;99.90;;;;;;5026018;28;19906;-73
2022/06/25 10:31:48;;;;;;;;;;;27.40;99.90;;;;;;5014324;28;19944;-73
2022/06/25 10:34:13;;;;;;;;;;;27.40;99.90;;;;;;5016958;28;20410;-72
2022/06/25 10:36:40;;;;;;;;;;;27.50;99.90;;;;;;5017579;28;19906;-72
2022/06/25 10:39:24;;;;;;;;;;;27.60;99.90;;;;;;5020079;28;19912;-73
2022/06/25 10:44:52;;;;;;;;;;;27.60;99.90;;;;;;5015693;28;19956;-73
2022/06/25 10:47:18;;;;;;;;;;;27.80;99.90;;;;;;5001434;28;20359;-73
2022/06/25 10:49:43;;;;;;;;;;;27.80;99.60;;;;;;5016087;28;19913;-72
2022/06/25 10:52:09;;;;;;;;;;;27.90;99.70;;;;;;5015770;28;19924;-72
2022/06/25 10:54:36;;;;;;;;;;;27.80;99.60;;;;;;4998671;28;19906;-73
2022/06/25 10:57:02;;;;;;;;;;;27.70;99.90;;;;;;4998208;28;19906;-72
2022/06/25 10:59:46;;;;;;;;;;;27.80;99.80;;;;;;4998145;28;19937;-72
2022/06/25 11:02:12;;;;;;;;;;;27.80;99.80;;;;;;4998230;28;19917;-72
2022/06/25 11:04:38;;;;;;;;;;;27.90;99.40;;;;;;5005445;28;19964;-72
2022/06/25 11:07:06;;;;;;;;;;;27.80;99.90;;;;;;5003509;28;19910;-72
2022/06/25 11:09:32;;;;;;;;;;;27.80;99.30;;;;;;5001711;28;19906;-72
2022/06/25 11:11:58;;;;;;;;;;;27.90;99.10;;;;;;5001777;28;19956;-72
2022/06/25 11:14:24;;;;;;;;;;;27.90;98.30;;;;;;5002131;28;19988;-72
2022/06/25 11:16:50;;;;;;;;;;;27.80;98.60;;;;;;5001836;28;19912;-73
2022/06/25 11:19:16;;;;;;;;;;;27.80;98.70;;;;;;4999438;28;20359;-74
2022/06/25 11:21:43;;;;;;;;;;;27.80;98.30;;;;;;4998196;28;19913;-72
2022/06/25 11:24:17;;;;;;;;;;;27.80;98.50;;;;;;4998977;28;19909;-72
2022/06/25 11:29:33;;;;;;;;;;;27.90;99.70;;;;;;4998535;28;19976;-71
2022/06/25 11:31:59;;;;;;;;;;;28.00;98.50;;;;;;4999886;28;20306;-71
2022/06/25 11:34:25;;;;;;;;;;;28.00;98.10;;;;;;5008835;28;19905;-71
2022/06/25 11:36:57;;;;;;;;;;;27.90;97.30;;;;;;5020202;28;19905;-72
2022/06/25 11:39:22;;;;;;;;;;;27.70;97.70;;;;;;5000742;28;19905;-71
2022/06/25 11:41:50;;;;;;;;;;;27.60;98.40;;;;;;4996358;28;20419;-71
2022/06/25 11:44:15;;;;;;;;;;;27.70;98.60;;;;;;4999416;28;19906;-71
2022/06/25 11:46:41;;;;;;;;;;;27.90;98.10;;;;;;4998199;28;22177;-71
2022/06/25 11:49:06;;;;;;;;;;;28.00;97.40;;;;;;4998102;28;19992;-71
2022/06/25 11:51:32;;;;;;;;;;;28.00;97.60;;;;;;4999003;28;19914;-72
2022/06/25 11:54:03;;;;;;;;;;;28.10;97.50;;;;;;5001356;28;19906;-70
2022/06/25 11:56:28;;;;;;;;;;;28.10;97.30;;;;;;5002269;28;20026;-71
2022/06/25 11:58:54;;;;;;;;;;;28.10;97.20;;;;;;5001623;28;19941;-71
2022/06/25 12:01:26;;;;;;;;;;;28.00;97.30;;;;;;5001173;28;19905;-71
2022/06/25 12:03:51;;;;;;;;;;;28.00;97.10;;;;;;4998464;28;20418;-71
2022/06/25 12:06:17;;;;;;;;;;;28.10;96.20;;;;;;4996689;28;19906;-71
2022/06/25 12:08:42;;;;;;;;;;;28.20;95.80;;;;;;4996382;28;19983;-71
2022/06/25 12:11:08;;;;;;;;;;;28.10;95.80;;;;;;4996060;28;19905;-71
2022/06/25 12:13:34;;;;;;;;;;;28.20;95.90;;;;;;5000076;28;19909;-70
2022/06/25 12:16:00;;;;;;;;;;;28.20;95.90;;;;;;5005332;28;19933;-71
2022/06/25 12:18:36;;;;;;;;;;;28.20;96.10;;;;;;5001916;28;19906;-72
2022/06/25 12:21:03;;;;;;;;;;;28.40;96.00;;;;;;5014498;28;19916;-72
2022/06/25 12:23:28;;;;;;;;;;;28.60;95.40;;;;;;5018100;28;20355;-72
2022/06/25 12:25:54;;;;;;;;;;;28.70;95.80;;;;;;5016029;28;19932;-72
2022/06/25 12:28:35;;;;;;;;;;;28.70;95.70;;;;;;5016000;28;19920;-72
2022/06/25 12:31:08;;;;;;;;;;;28.80;95.20;;;;;;5017351;28;19913;-71
2022/06/25 12:33:33;;;;;;;;;;;28.90;94.50;;;;;;5015315;28;19913;-72
2022/06/25 12:35:59;;;;;;;;;;;28.70;94.20;;;;;;5020668;28;19912;-72
2022/06/25 12:38:24;;;;;;;;;;;28.60;94.40;;;;;;5020509;28;19909;-72
2022/06/25 12:40:51;;;;;;;;;;;28.60;94.10;;;;;;5019512;28;20366;-72
2022/06/25 12:43:17;;;;;;;;;;;28.70;94.20;;;;;;5016186;28;19913;-72
2022/06/25 12:45:43;;;;;;;;;;;28.90;93.80;;;;;;5009286;28;20354;-72
2022/06/25 12:48:09;;;;;;;;;;;29.00;93.20;;;;;;5005557;28;19909;-71
2022/06/25 12:50:36;;;;;;;;;;;29.20;93.10;;;;;;5019411;28;19920;-71
2022/06/25 12:53:09;;;;;;;;;;;29.30;92.60;;;;;;5022842;28;19959;-71
2022/06/25 12:55:35;;;;;;;;;;;29.40;92.70;;;;;;5015106;28;19909;-74
2022/06/25 12:58:02;;;;;;;;;;;29.30;92.70;;;;;;5017248;28;19906;-71
2022/06/25 13:00:28;;;;;;;;;;;29.20;92.90;;;;;;5018438;28;19947;-71
2022/06/25 13:02:54;;;;;;;;;;;29.10;92.90;;;;;;5015895;28;19909;-70
2022/06/25 13:05:20;;;;;;;;;;;29.00;92.70;;;;;;5015613;28;19905;-73
2022/06/25 13:07:46;;;;;;;;;;;28.80;92.50;;;;;;5015209;28;19917;-71
2022/06/25 13:10:12;;;;;;;;;;;28.60;92.70;;;;;;5017316;28;19906;-70
2022/06/25 13:12:38;;;;;;;;;;;28.40;93.10;;;;;;5019929;28;19905;-72
2022/06/25 13:15:05;;;;;;;;;;;28.30;93.30;;;;;;5030743;28;19898;-72
2022/06/25 13:17:38;;;;;;;;;;;28.30;93.50;;;;;;5038634;28;19983;-71
2022/06/25 13:20:05;;;;;;;;;;;28.40;93.90;;;;;;5040340;28;19893;-72
2022/06/25 13:22:33;;;;;;;;;;;28.50;93.50;;;;;;5042886;28;19917;-71
2022/06/25 13:25:09;;;;;;;;;;;28.40;93.50;;;;;;5042736;28;19921;-71
2022/06/25 13:27:46;;;;;;;;;;;28.40;93.80;;;;;;5036900;28;19932;-72
2022/06/25 13:30:11;;;;;;;;;;;28.60;92.70;;;;;;5024380;28;19905;-72
2022/06/25 13:32:39;;;;;;;;;;;28.50;92.70;;;;;;5023493;28;19916;-72
2022/06/25 13:35:06;;;;;;;;;;;28.60;92.50;;;;;;5022422;28;20404;-71
2022/06/25 13:37:34;;;;;;;;;;;28.60;92.50;;;;;;5019394;28;19911;-71
2022/06/25 13:40:01;;;;;;;;;;;28.60;92.70;;;;;;5020048;28;19965;-72
2022/06/25 13:42:27;;;;;;;;;;;28.60;92.80;;;;;;5019392;28;19905;-72
2022/06/25 13:44:53;;;;;;;;;;;28.60;92.30;;;;;;5023013;28;19943;-72
2022/06/25 13:47:18;;;;;;;;;;;28.70;92.60;;;;;;5023797;28;20362;-72
2022/06/25 13:49:44;;;;;;;;;;;28.90;91.90;;;;;;5021316;28;19905;-72
2022/06/25 13:52:09;;;;;;;;;;;29.10;91.70;;;;;;5045877;22;19921;-77
2022/06/25 13:54:35;;;;;;;;;;;29.10;91.80;;;;;;5025177;28;20357;-77
2022/06/25 13:57:01;;;;;;;;;;;29.20;90.90;;;;;;5022456;28;19909;-77
2022/06/25 13:59:26;;;;;;;;;;;29.10;91.10;;;;;;5020449;28;19919;-77
2022/06/25 14:01:53;;;;;;;;;;;29.20;91.40;;;;;;5019767;28;19909;-77
2022/06/25 14:04:19;;;;;;;;;;;29.00;91.40;;;;;;5025892;28;20377;-77
2022/06/25 14:06:46;;;;;;;;;;;29.10;91.70;;;;;;5026334;28;19906;-77
2022/06/25 14:09:12;;;;;;;;;;;29.10;91.30;;;;;;5021160;28;19959;-77
2022/06/25 14:11:38;;;;;;;;;;;29.10;90.80;;;;;;5021929;28;19912;-78
2022/06/25 14:14:04;;;;;;;;;;;29.10;90.40;;;;;;5021900;28;19909;-77
2022/06/25 14:16:31;;;;;;;;;;;29.00;90.50;;;;;;5022186;28;19905;-78
2022/06/25 14:18:57;;;;;;;;;;;29.00;90.50;;;;;;5021222;28;19909;-78
2022/06/25 14:21:23;;;;;;;;;;;28.90;90.90;;;;;;5021922;28;19905;-77
2022/06/25 14:23:48;;;;;;;;;;;29.00;90.80;;;;;;5023643;28;19952;-78
2022/06/25 14:26:14;;;;;;;;;;;29.10;90.60;;;;;;5023697;28;20286;-78
2022/06/25 14:28:39;;;;;;;;;;;29.10;90.70;;;;;;5022447;28;19955;-77